sensor_id;sensor_type;location;lat;lon;timestamp;pressure;altitude;pressure_sealevel;temperature;humidity
1926;BME280;964;42.606;23.588;2023-04-21T00:00:51;94100.97;;;29.48;27.42
1926;BME280;964;42.606;23.588;2023-04-21T00:03:18;94099.31;;;29.56;27.34
1926;BME280;964;42.606;23.588;2023-04-21T00:05:46;94097.25;;;29.46;27.04
1926;BME280;964;42.606;23.588;2023-04-21T00:08:13;94090.78;;;29.23;27.26
1926;BME280;964;42.606;23.588;2023-04-21T00:10:41;94093.53;;;29.03;27.71
1926;BME280;964;42.606;23.588;2023-04-21T00:13:09;94091.06;;;29.05;27.73
1926;BME280;964;42.606;23.588;2023-04-21T00:15:36;94099.66;;;29.18;27.78
1926;BME280;964;42.606;23.588;2023-04-21T00:18:03;94094.06;;;28.66;28.48
1926;BME280;964;42.606;23.588;2023-04-21T00:20:31;94098.72;;;29.01;27.91
1926;BME280;964;42.606;23.588;2023-04-21T00:22:58;94092.03;;;29.02;27.85
1926;BME280;964;42.606;23.588;2023-04-21T00:25:26;94109.34;;;28.99;27.89
1926;BME280;964;42.606;23.588;2023-04-21T00:27:53;94099.22;;;28.64;28.20
1926;BME280;964;42.606;23.588;2023-04-21T00:30:21;94095.84;;;28.90;28.02
1926;BME280;964;42.606;23.588;2023-04-21T00:32:48;94095.22;;;29.20;27.49
1926;BME280;964;42.606;23.588;2023-04-21T00:35:15;94094.09;;;29.07;27.63
1926;BME280;964;42.606;23.588;2023-04-21T00:37:42;94089.84;;;28.86;27.98
1926;BME280;964;42.606;23.588;2023-04-21T00:40:09;94098.72;;;28.81;27.92
1926;BME280;964;42.606;23.588;2023-04-21T00:42:36;94093.47;;;28.77;27.76
1926;BME280;964;42.606;23.588;2023-04-21T00:45:03;94090.13;;;28.67;27.87
1926;BME280;964;42.606;23.588;2023-04-21T00:47:32;94089.16;;;28.91;27.69
1926;BME280;964;42.606;23.588;2023-04-21T00:49:58;94097.34;;;28.91;27.56
1926;BME280;964;42.606;23.588;2023-04-21T00:52:27;94094.44;;;28.74;27.64
1926;BME280;964;42.606;23.588;2023-04-21T00:54:54;94085.28;;;28.42;27.84
1926;BME280;964;42.606;23.588;2023-04-21T00:57:22;94094.97;;;28.43;27.81
1926;BME280;964;42.606;23.588;2023-04-21T00:59:49;94089.66;;;28.34;28.03
1926;BME280;964;42.606;23.588;2023-04-21T01:02:17;94094.22;;;28.08;28.23
1926;BME280;964;42.606;23.588;2023-04-21T01:04:46;94094.47;;;28.59;27.54
1926;BME280;964;42.606;23.588;2023-04-21T01:07:13;94085.78;;;27.76;28.76
1926;BME280;964;42.606;23.588;2023-04-21T01:09:40;94092.06;;;28.47;27.89
1926;BME280;964;42.606;23.588;2023-04-21T01:12:09;94094.22;;;28.78;27.68
1926;BME280;964;42.606;23.588;2023-04-21T01:14:37;94089.91;;;28.16;28.30
1926;BME280;964;42.606;23.588;2023-04-21T01:17:04;94084.16;;;28.49;28.13
1926;BME280;964;42.606;23.588;2023-04-21T01:19:34;94089.53;;;28.08;28.74
1926;BME280;964;42.606;23.588;2023-04-21T01:22:03;94081.34;;;28.23;28.41
1926;BME280;964;42.606;23.588;2023-04-21T01:24:36;94073.25;;;27.99;28.70
1926;BME280;964;42.606;23.588;2023-04-21T01:27:08;94071.84;;;28.04;28.63
1926;BME280;964;42.606;23.588;2023-04-21T01:29:35;94074.53;;;28.53;27.89
1926;BME280;964;42.606;23.588;2023-04-21T01:32:04;94067.31;;;28.50;27.73
1926;BME280;964;42.606;23.588;2023-04-21T01:34:31;94067.75;;;28.63;27.73
1926;BME280;964;42.606;23.588;2023-04-21T01:36:59;94074.97;;;28.66;27.55
1926;BME280;964;42.606;23.588;2023-04-21T01:39:27;94068.22;;;28.27;27.68
1926;BME280;964;42.606;23.588;2023-04-21T01:41:55;94063.53;;;28.27;27.93
1926;BME280;964;42.606;23.588;2023-04-21T01:44:24;94069.00;;;28.27;27.76
1926;BME280;964;42.606;23.588;2023-04-21T01:46:51;94067.03;;;28.28;27.54
1926;BME280;964;42.606;23.588;2023-04-21T01:49:18;94068.22;;;28.27;27.27
1926;BME280;964;42.606;23.588;2023-04-21T01:51:45;94064.13;;;28.17;27.37
1926;BME280;964;42.606;23.588;2023-04-21T01:54:12;94067.94;;;27.90;27.51
1926;BME280;964;42.606;23.588;2023-04-21T01:56:40;94080.47;;;27.29;28.35
1926;BME280;964;42.606;23.588;2023-04-21T01:59:07;94075.25;;;27.69;27.97
1926;BME280;964;42.606;23.588;2023-04-21T02:01:34;94073.59;;;27.57;27.94
1926;BME280;964;42.606;23.588;2023-04-21T02:04:01;94090.81;;;27.10;28.50
1926;BME280;964;42.606;23.588;2023-04-21T02:06:28;94081.53;;;27.17;28.30
1926;BME280;964;42.606;23.588;2023-04-21T02:08:56;94087.91;;;27.14;28.30
1926;BME280;964;42.606;23.588;2023-04-21T02:11:23;94073.75;;;27.39;28.13
1926;BME280;964;42.606;23.588;2023-04-21T02:13:52;94085.59;;;26.98;28.55
1926;BME280;964;42.606;23.588;2023-04-21T02:16:19;94077.50;;;27.27;28.03
1926;BME280;964;42.606;23.588;2023-04-21T02:18:50;94070.13;;;27.71;27.65
1926;BME280;964;42.606;23.588;2023-04-21T02:21:18;94076.66;;;27.21;28.08
1926;BME280;964;42.606;23.588;2023-04-21T02:23:46;94070.34;;;27.29;27.96
1926;BME280;964;42.606;23.588;2023-04-21T02:26:12;94076.53;;;27.15;28.42
1926;BME280;964;42.606;23.588;2023-04-21T02:28:40;94068.38;;;27.30;28.18
1926;BME280;964;42.606;23.588;2023-04-21T02:31:08;94071.78;;;27.54;27.58
1926;BME280;964;42.606;23.588;2023-04-21T02:33:35;94064.38;;;27.55;27.50
1926;BME280;964;42.606;23.588;2023-04-21T02:36:02;94066.72;;;27.47;27.37
1926;BME280;964;42.606;23.588;2023-04-21T02:38:29;94072.63;;;27.31;27.49
1926;BME280;964;42.606;23.588;2023-04-21T02:40:57;94063.09;;;27.50;27.12
1926;BME280;964;42.606;23.588;2023-04-21T02:43:23;94068.06;;;26.99;27.90
1926;BME280;964;42.606;23.588;2023-04-21T02:45:51;94074.66;;;27.36;27.34
1926;BME280;964;42.606;23.588;2023-04-21T02:48:19;94069.81;;;26.63;28.48
1926;BME280;964;42.606;23.588;2023-04-21T02:50:47;94081.78;;;27.19;27.91
1926;BME280;964;42.606;23.588;2023-04-21T02:53:15;94076.34;;;27.19;27.57
1926;BME280;964;42.606;23.588;2023-04-21T02:55:42;94081.38;;;26.97;27.49
1926;BME280;964;42.606;23.588;2023-04-21T02:58:09;94080.00;;;27.16;27.72
1926;BME280;964;42.606;23.588;2023-04-21T03:00:36;94074.31;;;27.14;27.73
1926;BME280;964;42.606;23.588;2023-04-21T03:03:03;94071.28;;;27.26;27.51
1926;BME280;964;42.606;23.588;2023-04-21T03:05:32;94078.63;;;26.58;28.28
1926;BME280;964;42.606;23.588;2023-04-21T03:07:59;94072.56;;;26.78;28.46
1926;BME280;964;42.606;23.588;2023-04-21T03:10:26;94077.31;;;27.30;27.79
1926;BME280;964;42.606;23.588;2023-04-21T03:12:52;94067.78;;;27.50;27.62
1926;BME280;964;42.606;23.588;2023-04-21T03:15:20;94067.66;;;27.44;27.24
1926;BME280;964;42.606;23.588;2023-04-21T03:17:47;94068.72;;;27.61;27.25
1926;BME280;964;42.606;23.588;2023-04-21T03:20:14;94075.75;;;27.68;27.05
1926;BME280;964;42.606;23.588;2023-04-21T03:22:42;94078.69;;;27.26;27.76
1926;BME280;964;42.606;23.588;2023-04-21T03:25:09;94076.75;;;27.41;27.39
1926;BME280;964;42.606;23.588;2023-04-21T03:27:36;94077.34;;;27.45;27.52
1926;BME280;964;42.606;23.588;2023-04-21T03:30:04;94079.75;;;27.14;27.52
1926;BME280;964;42.606;23.588;2023-04-21T03:32:32;94082.53;;;26.57;28.66
1926;BME280;964;42.606;23.588;2023-04-21T03:34:58;94074.31;;;27.43;27.77
1926;BME280;964;42.606;23.588;2023-04-21T03:37:25;94085.72;;;27.18;27.98
1926;BME280;964;42.606;23.588;2023-04-21T03:39:54;94081.38;;;27.64;28.02
1926;BME280;964;42.606;23.588;2023-04-21T03:42:21;94083.13;;;27.38;28.15
1926;BME280;964;42.606;23.588;2023-04-21T03:44:48;94079.41;;;27.80;27.38
1926;BME280;964;42.606;23.588;2023-04-21T03:47:15;94086.69;;;27.44;27.60
1926;BME280;964;42.606;23.588;2023-04-21T03:49:42;94084.47;;;27.87;27.20
1926;BME280;964;42.606;23.588;2023-04-21T03:52:09;94089.72;;;28.19;27.07
1926;BME280;964;42.606;23.588;2023-04-21T03:54:36;94086.31;;;28.10;27.06
1926;BME280;964;42.606;23.588;2023-04-21T03:57:04;94102.97;;;27.83;27.51
1926;BME280;964;42.606;23.588;2023-04-21T03:59:31;94104.53;;;28.04;27.27
1926;BME280;964;42.606;23.588;2023-04-21T04:01:58;94108.59;;;28.23;27.12
1926;BME280;964;42.606;23.588;2023-04-21T04:04:24;94103.34;;;28.95;26.42
1926;BME280;964;42.606;23.588;2023-04-21T04:06:51;94119.22;;;27.62;27.70
1926;BME280;964;42.606;23.588;2023-04-21T04:09:18;94117.53;;;27.94;26.82
1926;BME280;964;42.606;23.588;2023-04-21T04:11:45;94111.81;;;28.42;26.31
1926;BME280;964;42.606;23.588;2023-04-21T04:14:13;94116.97;;;28.74;25.89
1926;BME280;964;42.606;23.588;2023-04-21T04:16:40;94116.69;;;28.52;25.93
1926;BME280;964;42.606;23.588;2023-04-21T04:22:24;94122.84;;;28.67;26.03
1926;BME280;964;42.606;23.588;2023-04-21T04:24:51;94125.19;;;28.95;26.08
1926;BME280;964;42.606;23.588;2023-04-21T04:27:19;94137.06;;;29.32;25.58
1926;BME280;964;42.606;23.588;2023-04-21T04:29:48;94134.31;;;29.12;25.61
1926;BME280;964;42.606;23.588;2023-04-21T04:32:15;94135.00;;;29.27;25.63
1926;BME280;964;42.606;23.588;2023-04-21T04:34:42;94134.66;;;29.19;25.86
1926;BME280;964;42.606;23.588;2023-04-21T04:37:09;94143.47;;;28.89;25.91
1926;BME280;964;42.606;23.588;2023-04-21T04:39:37;94142.53;;;28.42;26.56
1926;BME280;964;42.606;23.588;2023-04-21T04:42:05;94147.06;;;28.80;26.25
1926;BME280;964;42.606;23.588;2023-04-21T04:44:33;94156.00;;;27.72;27.02
1926;BME280;964;42.606;23.588;2023-04-21T04:47:03;94153.50;;;28.62;26.34
1926;BME280;964;42.606;23.588;2023-04-21T04:49:30;94144.44;;;28.71;26.51
1926;BME280;964;42.606;23.588;2023-04-21T04:51:57;94149.59;;;29.44;25.84
1926;BME280;964;42.606;23.588;2023-04-21T04:54:24;94141.59;;;29.87;25.38
1926;BME280;964;42.606;23.588;2023-04-21T04:56:53;94154.00;;;29.88;25.20
1926;BME280;964;42.606;23.588;2023-04-21T04:59:20;94147.59;;;29.91;25.16
1926;BME280;964;42.606;23.588;2023-04-21T05:01:46;94146.94;;;29.76;25.77
1926;BME280;964;42.606;23.588;2023-04-21T05:04:15;94137.38;;;30.48;24.90
1926;BME280;964;42.606;23.588;2023-04-21T05:06:41;94143.00;;;30.39;24.75
1926;BME280;964;42.606;23.588;2023-04-21T05:09:08;94146.19;;;30.63;24.87
1926;BME280;964;42.606;23.588;2023-04-21T05:11:36;94145.13;;;30.55;24.69
1926;BME280;964;42.606;23.588;2023-04-21T05:17:00;94143.16;;;30.61;24.96
1926;BME280;964;42.606;23.588;2023-04-21T05:19:28;94134.66;;;30.96;24.27
1926;BME280;964;42.606;23.588;2023-04-21T05:21:57;94142.19;;;30.64;25.01
1926;BME280;964;42.606;23.588;2023-04-21T05:24:26;94135.31;;;30.75;24.58
1926;BME280;964;42.606;23.588;2023-04-21T05:26:53;94140.84;;;30.91;24.75
1926;BME280;964;42.606;23.588;2023-04-21T05:29:19;94141.69;;;31.08;24.73
1926;BME280;964;42.606;23.588;2023-04-21T05:31:46;94133.03;;;31.21;24.83
1926;BME280;964;42.606;23.588;2023-04-21T05:34:13;94134.66;;;31.55;24.12
1926;BME280;964;42.606;23.588;2023-04-21T05:36:41;94133.69;;;31.58;24.38
1926;BME280;964;42.606;23.588;2023-04-21T05:39:08;94140.97;;;31.19;24.62
1926;BME280;964;42.606;23.588;2023-04-21T05:41:35;94141.31;;;31.43;24.15
1926;BME280;964;42.606;23.588;2023-04-21T05:44:02;94140.25;;;31.24;24.89
1926;BME280;964;42.606;23.588;2023-04-21T05:46:29;94139.50;;;32.16;24.15
1926;BME280;964;42.606;23.588;2023-04-21T05:48:55;94132.75;;;32.12;24.19
1926;BME280;964;42.606;23.588;2023-04-21T05:51:22;94137.69;;;31.69;24.09
1926;BME280;964;42.606;23.588;2023-04-21T05:53:50;94139.69;;;32.01;23.88
1926;BME280;964;42.606;23.588;2023-04-21T05:56:17;94137.84;;;31.43;24.76
1926;BME280;964;42.606;23.588;2023-04-21T05:58:44;94133.22;;;32.32;24.09
1926;BME280;964;42.606;23.588;2023-04-21T06:01:11;94140.19;;;32.00;23.94
1926;BME280;964;42.606;23.588;2023-04-21T06:03:39;94136.22;;;32.01;23.49
1926;BME280;964;42.606;23.588;2023-04-21T06:06:06;94130.22;;;32.75;23.18
1926;BME280;964;42.606;23.588;2023-04-21T06:08:33;94125.75;;;32.61;24.01
1926;BME280;964;42.606;23.588;2023-04-21T06:11:01;94125.69;;;32.72;23.64
1926;BME280;964;42.606;23.588;2023-04-21T06:13:28;94121.28;;;33.32;23.42
1926;BME280;964;42.606;23.588;2023-04-21T06:15:55;94133.72;;;32.53;23.57
1926;BME280;964;42.606;23.588;2023-04-21T06:18:21;94128.16;;;32.92;23.89
1926;BME280;964;42.606;23.588;2023-04-21T06:20:51;94127.19;;;32.89;24.03
1926;BME280;964;42.606;23.588;2023-04-21T06:23:18;94122.63;;;32.97;23.78
1926;BME280;964;42.606;23.588;2023-04-21T06:25:45;94124.25;;;32.48;24.62
1926;BME280;964;42.606;23.588;2023-04-21T06:28:14;94123.25;;;32.63;24.35
1926;BME280;964;42.606;23.588;2023-04-21T06:30:40;94117.97;;;32.76;24.65
1926;BME280;964;42.606;23.588;2023-04-21T06:33:09;94121.16;;;32.91;23.25
1926;BME280;964;42.606;23.588;2023-04-21T06:35:35;94116.28;;;33.36;22.71
1926;BME280;964;42.606;23.588;2023-04-21T06:38:02;94113.19;;;32.93;23.78
1926;BME280;964;42.606;23.588;2023-04-21T06:40:29;94113.59;;;33.19;23.81
1926;BME280;964;42.606;23.588;2023-04-21T06:42:55;94115.19;;;32.92;23.69
1926;BME280;964;42.606;23.588;2023-04-21T06:45:24;94107.47;;;32.85;23.83
1926;BME280;964;42.606;23.588;2023-04-21T06:47:51;94111.91;;;32.94;24.16
1926;BME280;964;42.606;23.588;2023-04-21T06:50:17;94105.88;;;33.18;24.44
1926;BME280;964;42.606;23.588;2023-04-21T06:52:44;94109.69;;;33.50;23.62
1926;BME280;964;42.606;23.588;2023-04-21T06:55:11;94106.34;;;33.68;23.50
1926;BME280;964;42.606;23.588;2023-04-21T06:57:37;94108.94;;;33.49;23.77
1926;BME280;964;42.606;23.588;2023-04-21T07:00:05;94108.44;;;33.92;23.16
1926;BME280;964;42.606;23.588;2023-04-21T07:02:33;94102.84;;;33.68;23.84
1926;BME280;964;42.606;23.588;2023-04-21T07:05:00;94088.47;;;34.21;23.38
1926;BME280;964;42.606;23.588;2023-04-21T07:07:27;94097.66;;;34.29;23.54
1926;BME280;964;42.606;23.588;2023-04-21T07:09:54;94101.69;;;33.52;23.74
1926;BME280;964;42.606;23.588;2023-04-21T07:12:20;94109.81;;;34.39;23.46
1926;BME280;964;42.606;23.588;2023-04-21T07:14:47;94097.31;;;34.87;23.17
1926;BME280;964;42.606;23.588;2023-04-21T07:17:14;94115.75;;;34.49;23.42
1926;BME280;964;42.606;23.588;2023-04-21T07:19:42;94111.19;;;34.27;23.03
1926;BME280;964;42.606;23.588;2023-04-21T07:22:08;94093.31;;;34.88;23.25
1926;BME280;964;42.606;23.588;2023-04-21T07:24:35;94096.09;;;35.07;23.09
1926;BME280;964;42.606;23.588;2023-04-21T07:27:02;94101.13;;;34.60;22.75
1926;BME280;964;42.606;23.588;2023-04-21T07:29:29;94088.63;;;35.26;22.74
1926;BME280;964;42.606;23.588;2023-04-21T07:31:56;94090.53;;;34.93;23.00
1926;BME280;964;42.606;23.588;2023-04-21T07:34:23;94080.47;;;34.23;23.53
1926;BME280;964;42.606;23.588;2023-04-21T07:36:54;94094.91;;;34.29;22.95
1926;BME280;964;42.606;23.588;2023-04-21T07:39:21;94101.56;;;33.74;23.07
1926;BME280;964;42.606;23.588;2023-04-21T07:41:48;94091.00;;;33.84;23.06
1926;BME280;964;42.606;23.588;2023-04-21T07:44:14;94100.75;;;34.74;22.88
1926;BME280;964;42.606;23.588;2023-04-21T07:46:41;94105.44;;;34.25;23.64
1926;BME280;964;42.606;23.588;2023-04-21T07:49:08;94099.41;;;34.81;22.22
1926;BME280;964;42.606;23.588;2023-04-21T07:51:34;94098.94;;;35.01;22.01
1926;BME280;964;42.606;23.588;2023-04-21T07:54:02;94097.56;;;35.32;21.71
1926;BME280;964;42.606;23.588;2023-04-21T07:56:29;94095.97;;;35.92;21.31
1926;BME280;964;42.606;23.588;2023-04-21T07:58:56;94089.50;;;35.53;21.49
1926;BME280;964;42.606;23.588;2023-04-21T08:01:22;94091.81;;;35.67;21.70
1926;BME280;964;42.606;23.588;2023-04-21T08:03:49;94101.09;;;35.08;21.71
1926;BME280;964;42.606;23.588;2023-04-21T08:06:16;94104.16;;;34.56;22.09
1926;BME280;964;42.606;23.588;2023-04-21T08:08:42;94105.13;;;34.59;22.59
1926;BME280;964;42.606;23.588;2023-04-21T08:11:11;94091.00;;;36.04;21.03
1926;BME280;964;42.606;23.588;2023-04-21T08:13:37;94094.72;;;35.75;20.78
1926;BME280;964;42.606;23.588;2023-04-21T08:16:04;94095.31;;;36.18;21.46
1926;BME280;964;42.606;23.588;2023-04-21T08:18:31;94098.69;;;36.11;21.66
1926;BME280;964;42.606;23.588;2023-04-21T08:20:58;94093.31;;;36.90;21.12
1926;BME280;964;42.606;23.588;2023-04-21T08:23:24;94088.00;;;37.18;20.71
1926;BME280;964;42.606;23.588;2023-04-21T08:25:51;94090.22;;;36.94;20.90
1926;BME280;964;42.606;23.588;2023-04-21T08:28:22;94091.25;;;36.06;22.10
1926;BME280;964;42.606;23.588;2023-04-21T08:30:50;94086.50;;;37.17;20.62
1926;BME280;964;42.606;23.588;2023-04-21T08:33:17;94090.25;;;37.07;20.40
1926;BME280;964;42.606;23.588;2023-04-21T08:35:43;94079.63;;;39.18;20.07
1926;BME280;964;42.606;23.588;2023-04-21T08:38:10;94080.56;;;38.36;19.56
1926;BME280;964;42.606;23.588;2023-04-21T08:40:37;94079.72;;;36.79;20.09
1926;BME280;964;42.606;23.588;2023-04-21T08:43:05;94082.69;;;36.68;20.06
1926;BME280;964;42.606;23.588;2023-04-21T08:45:34;94087.91;;;36.26;20.32
1926;BME280;964;42.606;23.588;2023-04-21T08:48:01;94080.72;;;36.36;21.12
1926;BME280;964;42.606;23.588;2023-04-21T08:50:31;94084.41;;;35.94;21.47
1926;BME280;964;42.606;23.588;2023-04-21T08:52:59;94083.63;;;36.12;20.63
1926;BME280;964;42.606;23.588;2023-04-21T08:55:28;94077.84;;;35.97;21.60
1926;BME280;964;42.606;23.588;2023-04-21T08:57:55;94084.19;;;37.08;20.43
1926;BME280;964;42.606;23.588;2023-04-21T09:00:22;94074.88;;;37.32;20.54
1926;BME280;964;42.606;23.588;2023-04-21T09:02:54;94077.56;;;36.98;20.68
1926;BME280;964;42.606;23.588;2023-04-21T09:05:22;94061.91;;;37.74;20.18
1926;BME280;964;42.606;23.588;2023-04-21T09:07:50;94061.22;;;37.13;20.79
1926;BME280;964;42.606;23.588;2023-04-21T09:10:21;94061.13;;;38.07;19.56
1926;BME280;964;42.606;23.588;2023-04-21T09:12:49;94055.66;;;38.64;19.42
1926;BME280;964;42.606;23.588;2023-04-21T09:15:17;94050.38;;;38.04;19.73
1926;BME280;964;42.606;23.588;2023-04-21T09:17:45;94053.38;;;38.06;19.82
1926;BME280;964;42.606;23.588;2023-04-21T09:20:15;94043.81;;;38.56;19.01
1926;BME280;964;42.606;23.588;2023-04-21T09:22:43;94034.88;;;38.78;18.90
1926;BME280;964;42.606;23.588;2023-04-21T09:25:15;94025.59;;;39.47;17.92
1926;BME280;964;42.606;23.588;2023-04-21T09:27:42;94027.75;;;40.00;17.20
1926;BME280;964;42.606;23.588;2023-04-21T09:30:09;94021.66;;;39.35;18.14
1926;BME280;964;42.606;23.588;2023-04-21T09:32:36;94031.16;;;39.04;18.26
1926;BME280;964;42.606;23.588;2023-04-21T09:35:04;94019.00;;;39.14;19.18
1926;BME280;964;42.606;23.588;2023-04-21T09:37:32;94022.16;;;39.77;17.96
1926;BME280;964;42.606;23.588;2023-04-21T09:39:59;94019.94;;;39.83;17.90
1926;BME280;964;42.606;23.588;2023-04-21T09:42:28;94030.41;;;39.03;17.99
1926;BME280;964;42.606;23.588;2023-04-21T09:44:55;94030.84;;;39.22;17.70
1926;BME280;964;42.606;23.588;2023-04-21T09:47:22;94021.81;;;40.11;17.59
1926;BME280;964;42.606;23.588;2023-04-21T09:49:50;94014.03;;;40.09;17.66
1926;BME280;964;42.606;23.588;2023-04-21T09:52:19;94008.81;;;40.74;16.95
1926;BME280;964;42.606;23.588;2023-04-21T09:54:51;94015.41;;;41.01;17.64
1926;BME280;964;42.606;23.588;2023-04-21T09:57:21;94017.34;;;40.76;17.12
1926;BME280;964;42.606;23.588;2023-04-21T09:59:53;94015.88;;;40.45;17.30
1926;BME280;964;42.606;23.588;2023-04-21T10:02:24;94012.94;;;40.28;17.68
1926;BME280;964;42.606;23.588;2023-04-21T10:04:52;94014.97;;;41.20;18.11
1926;BME280;964;42.606;23.588;2023-04-21T10:07:18;94017.66;;;39.59;17.78
1926;BME280;964;42.606;23.588;2023-04-21T10:09:49;94011.72;;;39.47;18.10
1926;BME280;964;42.606;23.588;2023-04-21T10:12:18;94017.00;;;39.81;17.72
1926;BME280;964;42.606;23.588;2023-04-21T10:14:44;93998.44;;;41.62;16.00
1926;BME280;964;42.606;23.588;2023-04-21T10:17:11;94001.59;;;40.71;16.95
1926;BME280;964;42.606;23.588;2023-04-21T10:19:47;94002.91;;;41.57;16.50
1926;BME280;964;42.606;23.588;2023-04-21T10:22:25;94001.50;;;41.49;17.02
1926;BME280;964;42.606;23.588;2023-04-21T10:24:56;93998.34;;;41.77;16.32
1926;BME280;964;42.606;23.588;2023-04-21T10:27:31;93998.78;;;41.66;16.10
1926;BME280;964;42.606;23.588;2023-04-21T10:29:58;93995.88;;;40.69;17.01
1926;BME280;964;42.606;23.588;2023-04-21T10:32:39;93990.22;;;40.92;16.53
1926;BME280;964;42.606;23.588;2023-04-21T10:35:10;93977.78;;;41.97;16.14
1926;BME280;964;42.606;23.588;2023-04-21T10:37:36;93982.06;;;41.01;16.54
1926;BME280;964;42.606;23.588;2023-04-21T10:40:06;93977.91;;;41.82;16.32
1926;BME280;964;42.606;23.588;2023-04-21T10:42:35;93973.88;;;40.96;16.69
1926;BME280;964;42.606;23.588;2023-04-21T10:45:08;94000.06;;;38.90;18.07
1926;BME280;964;42.606;23.588;2023-04-21T10:50:22;94006.38;;;35.49;20.55
1926;BME280;964;42.606;23.588;2023-04-21T10:52:57;94010.84;;;35.52;20.37
1926;BME280;964;42.606;23.588;2023-04-21T10:55:28;94011.91;;;35.11;21.06
1926;BME280;964;42.606;23.588;2023-04-21T10:57:55;94008.31;;;36.44;20.40
1926;BME280;964;42.606;23.588;2023-04-21T11:00:23;94000.66;;;37.02;19.96
1926;BME280;964;42.606;23.588;2023-04-21T11:02:55;93996.00;;;37.65;19.07
1926;BME280;964;42.606;23.588;2023-04-21T11:05:30;94002.47;;;38.58;18.64
1926;BME280;964;42.606;23.588;2023-04-21T11:08:10;93990.44;;;38.91;18.31
1926;BME280;964;42.606;23.588;2023-04-21T11:10:48;93987.28;;;39.31;17.38
1926;BME280;964;42.606;23.588;2023-04-21T11:13:15;93988.50;;;39.14;17.42
1926;BME280;964;42.606;23.588;2023-04-21T11:15:54;93988.00;;;39.31;17.88
1926;BME280;964;42.606;23.588;2023-04-21T11:18:39;93991.16;;;39.28;18.39
1926;BME280;964;42.606;23.588;2023-04-21T11:21:08;93991.03;;;38.97;17.64
1926;BME280;964;42.606;23.588;2023-04-21T11:23:38;93994.72;;;39.58;17.45
1926;BME280;964;42.606;23.588;2023-04-21T11:26:07;93992.59;;;40.17;17.07
1926;BME280;964;42.606;23.588;2023-04-21T11:28:34;94002.25;;;38.27;18.28
1926;BME280;964;42.606;23.588;2023-04-21T11:31:00;93989.78;;;39.72;18.03
1926;BME280;964;42.606;23.588;2023-04-21T11:33:30;93988.94;;;41.33;17.41
1926;BME280;964;42.606;23.588;2023-04-21T11:36:02;93994.34;;;40.83;17.44
1926;BME280;964;42.606;23.588;2023-04-21T11:38:36;93988.19;;;41.40;17.08
1926;BME280;964;42.606;23.588;2023-04-21T11:41:03;93987.78;;;41.36;16.30
1926;BME280;964;42.606;23.588;2023-04-21T11:43:31;94004.22;;;38.76;18.67
1926;BME280;964;42.606;23.588;2023-04-21T11:46:10;94010.06;;;38.65;19.08
1926;BME280;964;42.606;23.588;2023-04-21T11:48:37;93990.31;;;39.63;18.10
1926;BME280;964;42.606;23.588;2023-04-21T11:51:04;93999.03;;;40.43;17.47
1926;BME280;964;42.606;23.588;2023-04-21T11:53:31;94001.06;;;39.74;18.15
1926;BME280;964;42.606;23.588;2023-04-21T11:55:58;93999.25;;;39.26;17.60
1926;BME280;964;42.606;23.588;2023-04-21T11:58:25;94003.06;;;39.07;17.48
1926;BME280;964;42.606;23.588;2023-04-21T12:00:53;94008.88;;;38.24;17.89
1926;BME280;964;42.606;23.588;2023-04-21T12:03:20;94000.56;;;38.04;18.29
1926;BME280;964;42.606;23.588;2023-04-21T12:05:55;94009.69;;;37.91;18.63
1926;BME280;964;42.606;23.588;2023-04-21T12:08:22;94020.06;;;37.57;19.07
1926;BME280;964;42.606;23.588;2023-04-21T12:10:48;94018.06;;;37.10;18.78
1926;BME280;964;42.606;23.588;2023-04-21T12:13:21;94010.41;;;37.71;18.62
1926;BME280;964;42.606;23.588;2023-04-21T12:15:48;94013.00;;;36.62;19.71
1926;BME280;964;42.606;23.588;2023-04-21T12:18:16;94023.34;;;37.21;18.71
1926;BME280;964;42.606;23.588;2023-04-21T12:20:48;94014.69;;;36.78;19.56
1926;BME280;964;42.606;23.588;2023-04-21T12:23:15;94006.97;;;37.23;19.03
1926;BME280;964;42.606;23.588;2023-04-21T12:25:42;94008.81;;;37.55;19.78
1926;BME280;964;42.606;23.588;2023-04-21T12:28:10;93997.28;;;38.90;19.20
1926;BME280;964;42.606;23.588;2023-04-21T12:30:36;94009.81;;;38.55;18.67
1926;BME280;964;42.606;23.588;2023-04-21T12:33:03;94012.41;;;38.53;18.95
1926;BME280;964;42.606;23.588;2023-04-21T12:35:31;94013.44;;;38.43;19.15
1926;BME280;964;42.606;23.588;2023-04-21T12:37:58;94002.63;;;38.88;18.52
1926;BME280;964;42.606;23.588;2023-04-21T12:40:24;93986.47;;;40.27;18.15
1926;BME280;964;42.606;23.588;2023-04-21T12:42:51;93983.25;;;40.53;17.43
1926;BME280;964;42.606;23.588;2023-04-21T12:45:18;93977.28;;;41.91;16.58
1926;BME280;964;42.606;23.588;2023-04-21T12:47:44;93982.22;;;41.36;16.47
1926;BME280;964;42.606;23.588;2023-04-21T12:50:11;93988.50;;;40.26;17.37
1926;BME280;964;42.606;23.588;2023-04-21T12:52:40;93997.38;;;38.77;18.17
1926;BME280;964;42.606;23.588;2023-04-21T12:55:07;93988.50;;;40.03;17.65
1926;BME280;964;42.606;23.588;2023-04-21T12:57:34;93987.56;;;41.81;16.78
1926;BME280;964;42.606;23.588;2023-04-21T13:00:00;93982.84;;;40.79;16.34
1926;BME280;964;42.606;23.588;2023-04-21T13:02:30;93975.69;;;41.16;16.60
1926;BME280;964;42.606;23.588;2023-04-21T13:05:01;93983.16;;;40.21;17.36
1926;BME280;964;42.606;23.588;2023-04-21T13:07:29;93995.22;;;38.26;18.57
1926;BME280;964;42.606;23.588;2023-04-21T13:09:57;94002.19;;;38.20;18.59
1926;BME280;964;42.606;23.588;2023-04-21T13:12:24;94000.50;;;37.75;18.89
1926;BME280;964;42.606;23.588;2023-04-21T13:14:51;93992.13;;;39.38;17.04
1926;BME280;964;42.606;23.588;2023-04-21T13:17:17;93994.53;;;39.64;17.08
1926;BME280;964;42.606;23.588;2023-04-21T13:19:44;93985.38;;;40.92;16.09
1926;BME280;964;42.606;23.588;2023-04-21T13:22:10;93986.84;;;41.08;15.45
1926;BME280;964;42.606;23.588;2023-04-21T13:24:37;93984.25;;;40.33;16.35
1926;BME280;964;42.606;23.588;2023-04-21T13:27:05;93987.53;;;40.69;16.09
1926;BME280;964;42.606;23.588;2023-04-21T13:29:32;93985.38;;;40.92;15.87
1926;BME280;964;42.606;23.588;2023-04-21T13:32:00;93980.38;;;40.21;16.33
1926;BME280;964;42.606;23.588;2023-04-21T13:34:28;93980.00;;;40.16;17.16